createdAt,value
2022-11-27T00:01:57.758Z,4.80
2022-11-27T00:04:27.642Z,4.80
2022-11-27T00:06:56.128Z,4.80
2022-11-27T00:09:25.305Z,4.80
2022-11-27T00:11:53.851Z,4.80
2022-11-27T00:14:22.396Z,4.80
2022-11-27T00:16:50.906Z,4.90
2022-11-27T00:19:19.405Z,4.90
2022-11-27T00:21:49.294Z,4.90
2022-11-27T00:24:17.811Z,4.90
2022-11-27T00:26:46.877Z,4.90
2022-11-27T00:29:15.456Z,4.90
2022-11-27T00:31:44.046Z,4.90
2022-11-27T00:34:13.029Z,4.90
2022-11-27T00:36:46.611Z,4.90
2022-11-27T00:39:18.285Z,4.90
2022-11-27T00:41:46.983Z,5.00
2022-11-27T00:44:15.539Z,5.00
2022-11-27T00:46:44.261Z,4.90
2022-11-27T00:49:16.318Z,5.10
2022-11-27T00:51:44.908Z,5.00
2022-11-27T00:54:13.418Z,5.00
2022-11-27T00:56:43.338Z,5.00
2022-11-27T00:59:13.331Z,4.90
2022-11-27T01:01:43.700Z,5.00
2022-11-27T01:04:15.986Z,5.00
2022-11-27T01:06:45.876Z,5.00
2022-11-27T01:09:15.268Z,5.00
2022-11-27T01:11:45.168Z,5.00
2022-11-27T01:14:15.567Z,5.00
2022-11-27T01:16:44.312Z,5.00
2022-11-27T01:19:14.496Z,5.10
2022-11-27T01:21:43.383Z,5.00
2022-11-27T01:24:13.253Z,5.00
2022-11-27T01:26:42.100Z,5.00
2022-11-27T01:29:13.849Z,5.00
2022-11-27T01:31:42.547Z,5.00
2022-11-27T01:34:16.939Z,5.00
2022-11-27T01:36:46.219Z,5.00
2022-11-27T01:39:17.177Z,4.90
2022-11-27T01:41:47.155Z,4.90
2022-11-27T01:44:53.066Z,4.90
2022-11-27T01:47:32.829Z,4.90
2022-11-27T01:50:11.297Z,4.90
2022-11-27T01:52:45.452Z,4.90
2022-11-27T01:55:20.481Z,4.90
2022-11-27T01:57:51.141Z,4.90
2022-11-27T02:00:21.043Z,4.90
2022-11-27T02:02:50.984Z,4.90
2022-11-27T02:05:22.082Z,4.80
2022-11-27T02:07:52.491Z,4.90
2022-11-27T02:10:21.630Z,4.80
2022-11-27T02:12:57.794Z,4.80
2022-11-27T02:15:33.785Z,4.80
2022-11-27T02:18:12.460Z,4.80
2022-11-27T02:20:48.544Z,4.80
2022-11-27T02:23:49.208Z,4.80
2022-11-27T02:26:32.718Z,4.80
2022-11-27T02:29:07.699Z,4.80
2022-11-27T02:31:42.798Z,4.80
2022-11-27T02:34:19.972Z,4.80
2022-11-27T02:36:53.475Z,4.80
2022-11-27T02:39:28.872Z,4.80
2022-11-27T02:42:02.616Z,4.90
2022-11-27T02:44:36.350Z,4.80
2022-11-27T02:47:06.151Z,4.80
2022-11-27T02:49:37.312Z,4.80
2022-11-27T02:52:08.071Z,4.80
2022-11-27T02:54:36.999Z,4.80
2022-11-27T02:57:07.599Z,4.80
2022-11-27T02:59:39.258Z,4.80
2022-11-27T03:02:11.919Z,4.80
2022-11-27T03:04:45.867Z,4.80
2022-11-27T03:07:19.352Z,4.80
2022-11-27T03:09:51.205Z,4.80
2022-11-27T03:12:20.540Z,4.80
2022-11-27T03:14:50.673Z,4.80
2022-11-27T03:17:32.275Z,4.80
2022-11-27T03:20:06.253Z,4.80
2022-11-27T03:22:35.556Z,4.70
2022-11-27T03:25:04.438Z,4.70
2022-11-27T03:27:36.680Z,4.70
2022-11-27T03:30:10.043Z,4.80
2022-11-27T03:32:38.764Z,4.80
2022-11-27T03:35:11.658Z,4.80
2022-11-27T03:37:40.343Z,4.70
2022-11-27T03:40:10.357Z,4.70
2022-11-27T03:42:53.118Z,4.70
2022-11-27T03:45:33.328Z,4.70
2022-11-27T03:48:15.992Z,4.70
2022-11-27T03:50:55.077Z,4.60
2022-11-27T03:53:29.493Z,4.70
2022-11-27T03:56:09.767Z,4.60
2022-11-27T03:58:44.798Z,4.70
2022-11-27T04:01:18.313Z,4.60
2022-11-27T04:03:46.932Z,4.60
2022-11-27T04:06:15.550Z,4.60
2022-11-27T04:08:45.830Z,4.60
2022-11-27T04:11:14.452Z,4.60
2022-11-27T04:13:42.922Z,4.60
2022-11-27T04:16:11.659Z,4.60
2022-11-27T04:18:41.785Z,4.60
2022-11-27T04:21:10.508Z,4.60
2022-11-27T04:23:38.972Z,4.60
2022-11-27T04:26:07.761Z,4.60
2022-11-27T04:28:36.215Z,4.60
2022-11-27T04:31:05.019Z,4.50
2022-11-27T04:33:33.585Z,4.50
2022-11-27T04:36:03.415Z,4.50
2022-11-27T04:38:31.939Z,4.40
2022-11-27T04:41:01.018Z,4.50
2022-11-27T04:43:29.923Z,4.40
2022-11-27T04:45:58.424Z,4.60
2022-11-27T04:48:26.931Z,4.40
2022-11-27T04:50:56.037Z,4.40
2022-11-27T04:53:25.883Z,4.30
2022-11-27T04:55:54.342Z,4.30
2022-11-27T04:58:22.824Z,4.40
2022-11-27T05:00:51.389Z,4.40
2022-11-27T05:03:20.054Z,4.30
2022-11-27T05:05:56.705Z,4.40
2022-11-27T05:08:27.243Z,4.40
2022-11-27T05:11:03.274Z,4.40
2022-11-27T05:13:32.046Z,4.40
2022-11-27T05:16:01.733Z,4.40
2022-11-27T05:18:30.535Z,4.40
2022-11-27T05:21:00.242Z,4.50
2022-11-27T05:23:30.385Z,4.50
2022-11-27T05:25:58.913Z,4.50
2022-11-27T05:28:28.011Z,4.40
2022-11-27T05:30:56.613Z,4.40
2022-11-27T05:33:25.218Z,4.40
2022-11-27T05:35:53.691Z,4.50
2022-11-27T05:38:22.231Z,4.50
2022-11-27T05:40:52.088Z,4.50
2022-11-27T05:43:20.639Z,4.50
2022-11-27T05:45:49.119Z,4.50
2022-11-27T05:48:17.602Z,4.50
2022-11-27T05:50:46.299Z,4.50
2022-11-27T05:53:15.197Z,4.50
2022-11-27T05:55:43.737Z,4.60
2022-11-27T05:58:13.726Z,4.50
2022-11-27T06:00:42.219Z,4.50
2022-11-27T06:03:10.796Z,4.50
2022-11-27T06:05:40.863Z,4.60
2022-11-27T06:08:09.396Z,4.50
2022-11-27T06:10:39.924Z,4.60
2022-11-27T06:13:09.151Z,4.60
2022-11-27T06:15:39.547Z,4.60
2022-11-27T06:18:08.664Z,4.60
2022-11-27T06:20:42.198Z,4.60
2022-11-27T06:23:12.364Z,4.60
2022-11-27T06:25:40.815Z,4.70
2022-11-27T06:28:09.811Z,4.60
2022-11-27T06:30:40.376Z,4.60
2022-11-27T06:33:08.944Z,4.70
2022-11-27T06:35:37.435Z,4.70
2022-11-27T06:38:05.973Z,4.70
2022-11-27T06:40:34.555Z,4.70
2022-11-27T06:43:03.126Z,4.70
2022-11-27T06:45:31.687Z,4.60
2022-11-27T06:48:01.645Z,4.70
2022-11-27T06:50:30.650Z,4.70
2022-11-27T06:52:59.236Z,4.80
2022-11-27T06:55:28.421Z,4.80
2022-11-27T06:57:56.895Z,4.80
2022-11-27T07:00:25.457Z,4.80
2022-11-27T07:02:55.930Z,4.80
2022-11-27T07:05:26.481Z,4.80
2022-11-27T07:07:56.351Z,4.90
2022-11-27T07:10:24.920Z,4.80
2022-11-27T07:12:53.516Z,4.90
2022-11-27T07:15:22.204Z,4.80
2022-11-27T07:17:50.741Z,4.90
2022-11-27T07:20:19.416Z,4.90
2022-11-27T07:22:49.276Z,4.90
2022-11-27T07:25:18.013Z,4.90
2022-11-27T07:27:47.043Z,5.00
2022-11-27T07:30:18.746Z,5.00
2022-11-27T07:32:47.273Z,5.10
2022-11-27T07:35:15.812Z,5.10
2022-11-27T07:37:44.324Z,5.10
2022-11-27T07:40:15.166Z,5.10
2022-11-27T07:42:43.805Z,5.10
2022-11-27T07:45:13.294Z,5.10
2022-11-27T07:47:42.054Z,5.20
2022-11-27T07:50:11.755Z,5.20
2022-11-27T07:52:42.249Z,5.20
2022-11-27T07:55:13.851Z,5.10
2022-11-27T07:57:43.925Z,5.20
2022-11-27T08:00:13.300Z,5.20
2022-11-27T08:02:41.859Z,5.30
2022-11-27T08:05:13.003Z,5.30
2022-11-27T08:07:42.448Z,5.40
2022-11-27T08:10:11.241Z,5.40
2022-11-27T08:12:39.763Z,5.40
2022-11-27T08:15:11.428Z,5.40
2022-11-27T08:17:41.012Z,5.50
2022-11-27T08:20:09.984Z,5.50
2022-11-27T08:22:38.749Z,5.50
2022-11-27T08:25:08.087Z,5.40
2022-11-27T08:27:36.701Z,5.50
2022-11-27T08:30:05.985Z,5.50
2022-11-27T08:32:36.041Z,5.50
2022-11-27T08:35:04.857Z,5.50
2022-11-27T08:37:34.686Z,5.50
2022-11-27T08:40:03.581Z,5.60
2022-11-27T08:42:32.625Z,5.60
2022-11-27T08:45:01.880Z,5.60
2022-11-27T08:47:33.014Z,5.70
2022-11-27T08:50:03.355Z,5.70
2022-11-27T08:52:33.663Z,5.70
2022-11-27T08:55:02.339Z,5.70
2022-11-27T08:57:31.777Z,5.70
2022-11-27T09:00:00.250Z,5.80
2022-11-27T09:02:28.903Z,5.80
2022-11-27T09:04:59.012Z,5.80
2022-11-27T09:07:29.813Z,5.80
2022-11-27T09:09:58.395Z,5.80
2022-11-27T09:12:27.629Z,5.90
2022-11-27T09:14:56.261Z,5.90
2022-11-27T09:17:24.764Z,5.90
2022-11-27T09:19:53.658Z,6.00
2022-11-27T09:22:22.238Z,6.00
2022-11-27T09:24:52.562Z,6.00
2022-11-27T09:27:21.168Z,6.00
2022-11-27T09:29:49.753Z,6.10
2022-11-27T09:32:18.653Z,6.20
2022-11-27T09:34:48.243Z,6.20
2022-11-27T09:37:16.810Z,6.20
2022-11-27T09:39:45.347Z,6.30
2022-11-27T09:42:26.713Z,6.40
2022-11-27T09:44:59.684Z,6.40
2022-11-27T09:47:41.189Z,6.50
2022-11-27T09:50:16.355Z,6.50
2022-11-27T09:52:49.536Z,6.50
2022-11-27T09:55:23.921Z,6.60
2022-11-27T09:58:00.576Z,6.70
2022-11-27T10:00:29.610Z,6.60
2022-11-27T10:02:58.444Z,6.60
2022-11-27T10:05:33.645Z,6.60
2022-11-27T10:08:23.325Z,6.70
2022-11-27T10:11:03.396Z,6.60
2022-11-27T10:13:46.874Z,6.50
2022-11-27T10:16:22.755Z,6.60
2022-11-27T10:18:55.603Z,6.50
2022-11-27T10:21:34.797Z,6.50
2022-11-27T10:24:12.382Z,6.60
2022-11-27T10:26:45.163Z,6.50
2022-11-27T10:29:28.490Z,6.50
2022-11-27T10:32:01.023Z,6.40
2022-11-27T10:34:38.676Z,6.40
2022-11-27T10:37:13.656Z,6.50
2022-11-27T10:39:46.277Z,6.50
2022-11-27T10:42:21.035Z,6.60
2022-11-27T10:44:56.180Z,6.50
2022-11-27T10:47:32.224Z,6.50
2022-11-27T10:50:02.285Z,6.60
2022-11-27T10:52:32.395Z,6.60
2022-11-27T10:55:05.811Z,6.60
2022-11-27T10:57:50.004Z,6.70
2022-11-27T11:00:23.930Z,6.60
2022-11-27T11:03:01.561Z,6.60
2022-11-27T11:05:45.104Z,6.60
2022-11-27T11:08:21.177Z,6.60
2022-11-27T11:10:53.079Z,6.60
2022-11-27T11:13:23.623Z,6.60
2022-11-27T11:15:56.430Z,6.60
2022-11-27T11:18:27.437Z,6.60
2022-11-27T11:20:58.493Z,6.50
2022-11-27T11:23:33.922Z,6.50
2022-11-27T11:26:06.586Z,6.50
2022-11-27T11:28:41.401Z,6.60
2022-11-27T11:31:15.932Z,6.70
2022-11-27T11:33:52.241Z,6.80
2022-11-27T11:36:21.364Z,6.90
2022-11-27T11:38:51.908Z,6.90
2022-11-27T11:41:20.722Z,7.00
2022-11-27T11:44:01.227Z,7.10
2022-11-27T11:46:33.791Z,7.20
2022-11-27T11:49:07.019Z,7.20
2022-11-27T11:52:00.054Z,7.20
2022-11-27T11:54:41.551Z,7.20
2022-11-27T11:57:29.717Z,7.20
2022-11-27T12:00:04.647Z,7.20
2022-11-27T12:02:58.945Z,7.20
2022-11-27T12:05:38.387Z,7.30
2022-11-27T12:08:25.189Z,7.40
2022-11-27T12:11:05.462Z,7.50
2022-11-27T12:13:50.724Z,7.50
2022-11-27T12:16:27.632Z,7.40
2022-11-27T12:19:22.118Z,7.50
2022-11-27T12:22:00.601Z,7.60
2022-11-27T12:24:38.194Z,7.70
2022-11-27T12:27:19.388Z,7.70
2022-11-27T12:30:04.299Z,7.70
2022-11-27T12:33:05.471Z,7.50
2022-11-27T12:35:39.249Z,7.50
2022-11-27T12:38:32.539Z,7.50
2022-11-27T12:41:30.782Z,7.60
2022-11-27T12:44:01.223Z,7.70
2022-11-27T12:46:37.616Z,7.70
2022-11-27T12:49:13.734Z,7.80
2022-11-27T12:51:48.329Z,7.80
2022-11-27T12:54:21.309Z,7.80
2022-11-27T12:56:54.956Z,7.80
2022-11-27T12:59:28.442Z,7.80
2022-11-27T13:02:05.416Z,7.90
2022-11-27T13:04:40.891Z,7.90
2022-11-27T13:07:15.764Z,8.00
2022-11-27T13:09:50.920Z,8.00
2022-11-27T13:12:24.878Z,7.90
2022-11-27T13:14:59.542Z,8.00
2022-11-27T13:17:35.343Z,7.90
2022-11-27T13:20:07.162Z,8.00
2022-11-27T13:22:38.246Z,7.90
2022-11-27T13:25:14.417Z,7.80
2022-11-27T13:27:46.660Z,7.80
2022-11-27T13:30:23.742Z,7.90
2022-11-27T13:32:55.157Z,7.90
2022-11-27T13:35:28.986Z,7.90
2022-11-27T13:38:06.436Z,7.80
2022-11-27T13:40:39.677Z,7.70
2022-11-27T13:43:23.961Z,7.60
2022-11-27T13:45:53.031Z,7.50
2022-11-27T13:48:32.867Z,7.50
2022-11-27T13:51:02.173Z,7.40
2022-11-27T13:53:38.657Z,7.30
2022-11-27T13:56:08.516Z,7.40
2022-11-27T13:58:38.818Z,7.20
2022-11-27T14:01:17.049Z,7.10
2022-11-27T14:03:46.123Z,7.10
2022-11-27T14:06:22.410Z,7.00
2022-11-27T14:08:57.349Z,7.00
2022-11-27T14:11:36.118Z,7.00
2022-11-27T14:14:16.343Z,6.90
2022-11-27T14:16:56.630Z,6.80
2022-11-27T14:19:33.852Z,6.80
2022-11-27T14:22:14.572Z,6.70
2022-11-27T14:24:46.075Z,6.70
2022-11-27T14:27:18.834Z,6.60
2022-11-27T14:29:47.790Z,6.60
2022-11-27T14:32:18.629Z,6.60
2022-11-27T14:34:49.353Z,6.60
2022-11-27T14:37:23.006Z,6.50
2022-11-27T14:39:56.881Z,6.50
2022-11-27T14:42:29.346Z,6.50
2022-11-27T14:45:03.356Z,6.40
2022-11-27T14:47:33.062Z,6.30
2022-11-27T14:50:03.655Z,6.30
2022-11-27T14:52:32.793Z,6.20
2022-11-27T14:55:03.585Z,6.20
2022-11-27T14:57:33.105Z,6.20
2022-11-27T15:00:06.312Z,6.20
2022-11-27T15:02:35.314Z,6.10
2022-11-27T15:05:06.453Z,6.10
2022-11-27T15:07:45.361Z,6.10
2022-11-27T15:10:36.034Z,6.10
2022-11-27T15:13:08.176Z,6.00
2022-11-27T15:15:43.574Z,6.00
2022-11-27T15:18:22.760Z,6.00
2022-11-27T15:20:53.361Z,6.00
2022-11-27T15:23:24.499Z,6.00
2022-11-27T15:26:14.349Z,6.00
2022-11-27T15:28:51.877Z,6.00
2022-11-27T15:31:29.889Z,5.90
2022-11-27T15:34:02.206Z,5.90
2022-11-27T15:36:49.659Z,5.90
2022-11-27T15:39:22.775Z,5.90
2022-11-27T15:41:54.985Z,5.90
2022-11-27T15:44:24.490Z,5.90
2022-11-27T15:46:54.872Z,5.90
2022-11-27T15:49:24.381Z,5.80
2022-11-27T15:51:53.107Z,5.80
2022-11-27T15:54:23.102Z,5.80
2022-11-27T15:56:53.681Z,5.80
2022-11-27T15:59:24.512Z,5.70
2022-11-27T16:01:53.205Z,5.80
2022-11-27T16:04:22.248Z,5.70
2022-11-27T16:06:51.065Z,5.70
2022-11-27T16:09:20.067Z,5.60
2022-11-27T16:11:49.626Z,5.60
2022-11-27T16:14:19.858Z,5.60
2022-11-27T16:16:48.630Z,5.60
2022-11-27T16:19:17.271Z,5.60
2022-11-27T16:21:45.980Z,5.60
2022-11-27T16:24:15.810Z,5.60
2022-11-27T16:26:44.770Z,5.50
2022-11-27T16:29:13.443Z,5.50
2022-11-27T16:31:45.242Z,5.50
2022-11-27T16:34:17.839Z,5.50
2022-11-27T16:36:46.835Z,5.50
2022-11-27T16:39:18.223Z,5.50
2022-11-27T16:41:46.864Z,5.50
2022-11-27T16:44:16.707Z,5.40
2022-11-27T16:46:47.324Z,5.40
2022-11-27T16:49:17.628Z,5.40
2022-11-27T16:51:46.317Z,5.40
2022-11-27T16:54:15.909Z,5.40
2022-11-27T16:56:45.276Z,5.30
2022-11-27T16:59:17.715Z,5.40
2022-11-27T17:01:48.804Z,5.30
2022-11-27T17:04:19.293Z,5.30
2022-11-27T17:06:49.002Z,5.30
2022-11-27T17:09:18.187Z,5.30
2022-11-27T17:11:49.457Z,5.30
2022-11-27T17:14:20.869Z,5.40
2022-11-27T17:16:52.137Z,5.30
2022-11-27T17:19:24.447Z,5.20
2022-11-27T17:21:54.104Z,5.30
2022-11-27T17:24:24.945Z,5.30
2022-11-27T17:26:55.453Z,5.30
2022-11-27T17:29:34.161Z,5.30
2022-11-27T17:32:08.731Z,5.30
2022-11-27T17:34:38.648Z,5.30
2022-11-27T17:37:07.482Z,5.30
2022-11-27T17:39:36.336Z,5.20
2022-11-27T17:42:11.452Z,5.30
2022-11-27T17:44:43.555Z,5.20
2022-11-27T17:47:13.887Z,5.20
2022-11-27T17:49:43.139Z,5.20
2022-11-27T17:52:12.324Z,5.20
2022-11-27T17:54:41.431Z,5.10
2022-11-27T17:57:10.662Z,5.10
2022-11-27T17:59:40.769Z,5.10
2022-11-27T18:02:13.397Z,5.10
2022-11-27T18:04:42.021Z,5.10
2022-11-27T18:07:11.035Z,5.00
2022-11-27T18:09:40.373Z,5.00
2022-11-27T18:12:09.539Z,5.00
2022-11-27T18:14:38.242Z,5.00
2022-11-27T18:17:08.780Z,5.00
2022-11-27T18:19:38.984Z,5.00
2022-11-27T18:22:09.331Z,5.00
2022-11-27T18:24:41.705Z,4.90
2022-11-27T18:27:13.309Z,4.90
2022-11-27T18:29:44.798Z,4.90
2022-11-27T18:32:17.032Z,4.90
2022-11-27T18:34:47.899Z,4.90
2022-11-27T18:37:16.783Z,4.80
2022-11-27T18:39:46.876Z,4.90
2022-11-27T18:42:16.301Z,4.80
2022-11-27T18:44:45.540Z,4.80
2022-11-27T18:47:15.058Z,4.80
2022-11-27T18:49:49.211Z,4.80
2022-11-27T18:52:18.174Z,4.80
2022-11-27T18:54:49.874Z,4.80
2022-11-27T18:57:19.690Z,4.70
2022-11-27T18:59:49.301Z,4.70
2022-11-27T19:02:18.507Z,4.70
2022-11-27T19:04:50.262Z,4.70
2022-11-27T19:07:20.884Z,4.70
2022-11-27T19:09:50.915Z,4.70
2022-11-27T19:12:22.178Z,4.60
2022-11-27T19:14:59.029Z,4.70
2022-11-27T19:17:32.303Z,4.60
2022-11-27T19:20:03.690Z,4.60
2022-11-27T19:22:34.496Z,4.60
2022-11-27T19:25:04.355Z,4.70
2022-11-27T19:27:32.982Z,4.60
2022-11-27T19:30:01.773Z,4.60
2022-11-27T19:32:32.550Z,4.50
2022-11-27T19:35:06.915Z,4.60
2022-11-27T19:37:37.643Z,4.60
2022-11-27T19:40:08.502Z,4.50
2022-11-27T19:42:38.352Z,4.50
2022-11-27T19:45:09.618Z,4.60
2022-11-27T19:47:38.254Z,4.60
2022-11-27T19:50:10.260Z,4.60
2022-11-27T19:52:40.300Z,4.60
2022-11-27T19:55:09.892Z,4.60
2022-11-27T19:57:39.517Z,4.50
2022-11-27T20:00:09.413Z,4.50
2022-11-27T20:02:46.231Z,4.50
2022-11-27T20:05:16.424Z,4.50
2022-11-27T20:07:45.421Z,4.40
2022-11-27T20:10:15.082Z,4.30
2022-11-27T20:12:43.745Z,4.30
2022-11-27T20:15:14.483Z,4.30
2022-11-27T20:17:44.096Z,4.20
2022-11-27T20:20:17.027Z,4.20
2022-11-27T20:22:45.836Z,4.20
2022-11-27T20:25:19.813Z,4.20
2022-11-27T20:27:50.872Z,4.20
2022-11-27T20:30:20.637Z,4.10
2022-11-27T20:32:49.359Z,4.10
2022-11-27T20:35:19.812Z,4.10
2022-11-27T20:37:48.788Z,4.10
2022-11-27T20:40:20.421Z,4.00
2022-11-27T20:42:49.398Z,4.00
2022-11-27T20:45:20.583Z,4.00
2022-11-27T20:47:50.655Z,4.00
2022-11-27T20:50:22.201Z,4.00
2022-11-27T20:52:50.864Z,3.90
2022-11-27T20:55:20.465Z,3.90
2022-11-27T20:57:52.111Z,3.80
2022-11-27T21:00:24.971Z,3.80
2022-11-27T21:02:53.886Z,3.80
2022-11-27T21:05:24.308Z,3.70
2022-11-27T21:07:53.907Z,3.70
2022-11-27T21:10:26.012Z,3.60
2022-11-27T21:12:55.117Z,3.50
2022-11-27T21:15:24.612Z,3.40
2022-11-27T21:17:53.232Z,3.40
2022-11-27T21:20:23.838Z,3.40
2022-11-27T21:22:52.434Z,3.30
2022-11-27T21:25:25.347Z,3.30
2022-11-27T21:27:56.002Z,3.20
2022-11-27T21:30:24.674Z,3.20
2022-11-27T21:32:53.413Z,3.10
2022-11-27T21:35:27.483Z,3.10
2022-11-27T21:37:58.778Z,3.00
2022-11-27T21:40:27.468Z,3.00
2022-11-27T21:42:56.258Z,3.00
2022-11-27T21:45:24.865Z,3.00
2022-11-27T21:47:53.490Z,3.00
2022-11-27T21:50:23.850Z,3.00
2022-11-27T21:52:54.780Z,3.10
2022-11-27T21:55:23.402Z,3.00
2022-11-27T21:57:53.489Z,3.00
2022-11-27T22:00:23.688Z,3.10
2022-11-27T22:02:52.639Z,3.00
2022-11-27T22:05:21.294Z,3.00
2022-11-27T22:07:51.355Z,3.00
2022-11-27T22:10:22.451Z,3.00
2022-11-27T22:12:51.123Z,3.00
2022-11-27T22:15:21.048Z,2.90
2022-11-27T22:17:49.775Z,2.90
2022-11-27T22:20:19.180Z,2.90
2022-11-27T22:22:47.990Z,2.80
2022-11-27T22:25:18.810Z,2.80
2022-11-27T22:27:47.361Z,2.80
2022-11-27T22:30:16.235Z,2.70
2022-11-27T22:32:44.907Z,2.70
2022-11-27T22:35:13.555Z,2.70
2022-11-27T22:37:42.193Z,2.70
2022-11-27T22:40:11.745Z,2.70
2022-11-27T22:42:44.032Z,2.70
2022-11-27T22:45:12.955Z,2.70
2022-11-27T22:47:41.670Z,2.70
2022-11-27T22:50:10.732Z,2.70
2022-11-27T22:52:39.418Z,2.70
2022-11-27T22:55:08.498Z,2.70
2022-11-27T22:57:37.345Z,2.70
2022-11-27T23:00:09.933Z,2.70
2022-11-27T23:02:39.848Z,2.70
2022-11-27T23:05:09.684Z,2.70
2022-11-27T23:07:38.237Z,2.70
2022-11-27T23:10:09.512Z,2.70
2022-11-27T23:12:38.259Z,2.70
2022-11-27T23:15:09.000Z,2.70
2022-11-27T23:17:37.609Z,2.70
2022-11-27T23:20:07.668Z,2.60
2022-11-27T23:22:36.283Z,2.60
2022-11-27T23:25:05.087Z,2.60
2022-11-27T23:27:33.604Z,2.60
2022-11-27T23:30:02.196Z,2.60
2022-11-27T23:32:34.637Z,2.60
2022-11-27T23:35:03.317Z,2.60
2022-11-27T23:37:31.982Z,2.50
2022-11-27T23:40:00.918Z,2.50
2022-11-27T23:42:29.808Z,2.50
2022-11-27T23:44:58.647Z,2.40
2022-11-27T23:47:27.192Z,2.40
2022-11-27T23:49:57.094Z,2.40
2022-11-27T23:52:25.757Z,2.30
2022-11-27T23:54:54.315Z,2.30
2022-11-27T23:57:22.867Z,2.30
2022-11-27T23:59:51.635Z,2.30
